createdAt,value
2017-11-09T00:00:58.980Z,45.08
2017-11-09T00:02:07.008Z,46.42
2017-11-09T00:03:09.489Z,46.78
2017-11-09T00:04:17.642Z,50.25
2017-11-09T00:06:57.666Z,47.55
2017-11-09T00:08:00.220Z,47.97
2017-11-09T00:09:02.756Z,47.70
2017-11-09T00:10:05.251Z,48.70
2017-11-09T00:11:07.743Z,49.33
2017-11-09T00:12:10.273Z,46.78
2017-11-09T00:13:12.756Z,47.35
2017-11-09T00:14:15.332Z,47.15
2017-11-09T00:15:17.842Z,46.97
2017-11-09T00:16:20.369Z,47.70
2017-11-09T00:17:22.981Z,48.03
2017-11-09T00:18:25.861Z,49.42
2017-11-09T00:19:28.354Z,47.13
2017-11-09T00:20:31.038Z,49.03
2017-11-09T00:21:33.514Z,52.03
2017-11-09T00:22:36.057Z,49.33
2017-11-09T00:23:39.778Z,48.67
2017-11-09T00:24:42.353Z,45.55
2017-11-09T00:25:45.613Z,49.53
2017-11-09T00:26:48.284Z,47.67
2017-11-09T00:27:50.766Z,47.75
2017-11-09T00:28:53.288Z,48.45
2017-11-09T00:29:55.845Z,49.20
2017-11-09T00:30:58.401Z,49.53
2017-11-09T00:32:00.974Z,49.22
2017-11-09T00:33:03.749Z,45.65
2017-11-09T00:34:06.267Z,47.22
2017-11-09T00:35:09.021Z,48.45
2017-11-09T00:36:11.500Z,53.70
2017-11-09T00:37:14.054Z,50.42
2017-11-09T00:38:16.576Z,47.10
2017-11-09T00:39:19.099Z,48.75
2017-11-09T00:40:21.602Z,51.20
2017-11-09T00:41:24.103Z,49.70
2017-11-09T00:42:26.616Z,50.60
2017-11-09T00:43:30.076Z,52.47
2017-11-09T00:44:32.562Z,50.50
2017-11-09T00:45:35.997Z,49.70
2017-11-09T00:46:39.461Z,49.03
2017-11-09T00:47:41.962Z,49.97
2017-11-09T00:48:44.466Z,51.22
2017-11-09T00:49:47.916Z,48.75
2017-11-09T00:50:50.381Z,51.37
2017-11-09T00:51:52.942Z,51.55
2017-11-09T00:52:55.437Z,51.42
2017-11-09T00:53:58.007Z,46.28
2017-11-09T00:55:00.509Z,49.20
2017-11-09T00:56:02.996Z,49.97
2017-11-09T00:57:05.474Z,51.42
2017-11-09T00:58:08.024Z,53.15
2017-11-09T00:59:10.533Z,51.30
2017-11-09T01:00:13.704Z,47.58
2017-11-09T01:01:17.011Z,49.42
2017-11-09T01:02:20.274Z,48.13
2017-11-09T01:03:22.757Z,49.28
2017-11-09T01:04:26.209Z,49.10
2017-11-09T01:05:28.689Z,49.45
2017-11-09T01:06:31.226Z,47.58
2017-11-09T01:07:33.726Z,46.95
2017-11-09T01:08:36.286Z,52.72
2017-11-09T01:09:38.769Z,49.78
2017-11-09T01:10:42.286Z,49.97
2017-11-09T01:11:45.986Z,50.95
2017-11-09T01:12:48.472Z,51.90
2017-11-09T01:13:50.963Z,50.58
2017-11-09T01:14:53.542Z,50.20
2017-11-09T01:15:56.014Z,49.75
2017-11-09T01:16:58.556Z,50.58
2017-11-09T01:18:01.040Z,50.22
2017-11-09T01:19:03.568Z,52.08
2017-11-09T01:20:06.048Z,50.22
2017-11-09T01:21:08.598Z,51.17
2017-11-09T01:22:11.078Z,49.47
2017-11-09T01:23:14.832Z,49.53
2017-11-09T01:24:17.305Z,50.95
2017-11-09T01:25:19.906Z,51.15
2017-11-09T01:26:22.385Z,49.45
2017-11-09T01:27:25.851Z,50.63
2017-11-09T01:28:28.382Z,50.42
2017-11-09T01:29:30.874Z,51.30
2017-11-09T01:30:33.354Z,53.35
2017-11-09T01:31:35.916Z,49.50
2017-11-09T01:32:38.411Z,51.47
2017-11-09T01:33:41.009Z,48.58
2017-11-09T01:34:43.489Z,50.53
2017-11-09T01:35:45.981Z,56.08
2017-11-09T01:36:48.472Z,51.50
2017-11-09T01:37:51.017Z,47.60
2017-11-09T01:38:53.506Z,50.55
2017-11-09T01:39:56.049Z,51.60
2017-11-09T01:40:58.537Z,50.50
2017-11-09T01:42:01.490Z,52.13
2017-11-09T01:43:04.117Z,50.60
2017-11-09T01:44:06.702Z,48.20
2017-11-09T01:45:09.201Z,51.75
2017-11-09T01:46:11.746Z,51.22
2017-11-09T01:47:14.257Z,50.40
2017-11-09T01:48:17.703Z,49.58
2017-11-09T01:49:20.196Z,50.33
2017-11-09T01:50:22.730Z,51.08
2017-11-09T01:51:25.204Z,53.58
2017-11-09T01:52:27.760Z,50.50
2017-11-09T01:53:30.334Z,48.85
2017-11-09T01:54:32.812Z,51.85
2017-11-09T01:55:36.075Z,53.63
2017-11-09T01:56:38.745Z,53.78
2017-11-09T01:57:41.250Z,54.00
2017-11-09T01:58:45.640Z,53.97
2017-11-09T01:59:48.140Z,52.00
2017-11-09T02:00:52.497Z,51.95
2017-11-09T02:01:54.977Z,50.67
2017-11-09T02:02:58.455Z,52.62
2017-11-09T02:04:00.958Z,51.53
2017-11-09T02:05:04.421Z,51.22
2017-11-09T02:06:07.672Z,53.58
2017-11-09T02:07:10.378Z,51.67
2017-11-09T02:08:14.357Z,50.47
2017-11-09T02:09:17.078Z,52.72
2017-11-09T02:10:20.343Z,54.88
2017-11-09T02:11:23.834Z,53.63
2017-11-09T02:12:27.094Z,49.10
2017-11-09T02:13:30.573Z,50.55
2017-11-09T02:14:33.063Z,50.70
2017-11-09T02:15:35.721Z,53.03
2017-11-09T02:16:38.224Z,52.47
2017-11-09T02:17:41.673Z,53.53
2017-11-09T02:18:44.141Z,47.62
2017-11-09T02:19:46.695Z,51.60
2017-11-09T02:20:49.199Z,50.22
2017-11-09T02:21:52.638Z,51.45
2017-11-09T02:22:55.168Z,51.63
2017-11-09T02:23:57.662Z,50.92
2017-11-09T02:25:00.142Z,49.53
2017-11-09T02:26:02.716Z,49.97
2017-11-09T02:27:05.202Z,48.83
2017-11-09T02:28:07.728Z,50.83
2017-11-09T02:29:10.992Z,49.20
2017-11-09T02:30:13.704Z,51.65
2017-11-09T02:31:16.177Z,52.13
2017-11-09T02:32:18.745Z,49.50
2017-11-09T02:33:21.988Z,52.88
2017-11-09T02:34:24.674Z,53.42
2017-11-09T02:35:27.148Z,48.45
2017-11-09T02:36:29.702Z,50.22
2017-11-09T02:37:32.206Z,51.00
2017-11-09T02:38:34.736Z,53.75
2017-11-09T02:39:37.207Z,51.60
2017-11-09T02:40:39.778Z,53.72
2017-11-09T02:41:42.268Z,53.70
2017-11-09T02:42:44.900Z,50.60
2017-11-09T02:43:48.194Z,52.88
2017-11-09T02:44:50.747Z,50.05
2017-11-09T02:45:53.218Z,53.30
2017-11-09T02:46:55.785Z,52.08
2017-11-09T02:47:58.269Z,54.03
2017-11-09T02:49:01.570Z,51.17
2017-11-09T02:50:04.943Z,51.75
2017-11-09T02:51:08.308Z,50.60
2017-11-09T02:52:10.834Z,52.80
2017-11-09T02:53:13.370Z,53.95
2017-11-09T02:54:30.918Z,52.50
2017-11-09T02:55:33.415Z,52.08
2017-11-09T02:56:36.095Z,50.70
2017-11-09T02:57:39.467Z,52.17
2017-11-09T02:58:42.092Z,52.70
2017-11-09T02:59:45.565Z,50.28
2017-11-09T03:00:48.917Z,52.45
2017-11-09T03:01:51.409Z,52.20
2017-11-09T03:02:53.971Z,50.50
2017-11-09T03:03:56.483Z,53.60
2017-11-09T03:04:58.976Z,51.63
2017-11-09T03:06:01.526Z,51.65
2017-11-09T03:07:04.037Z,51.20
2017-11-09T03:08:06.546Z,50.72
2017-11-09T03:09:09.039Z,53.42
2017-11-09T03:10:11.525Z,52.60
2017-11-09T03:11:14.178Z,52.28
2017-11-09T03:12:16.681Z,51.40
2017-11-09T03:13:20.043Z,51.50
2017-11-09T03:14:22.561Z,52.35
2017-11-09T03:15:25.046Z,51.00
2017-11-09T03:16:27.561Z,50.95
2017-11-09T03:17:31.019Z,49.05
2017-11-09T03:18:33.520Z,50.65
2017-11-09T03:19:36.944Z,54.25
2017-11-09T03:20:39.418Z,52.70
2017-11-09T03:21:42.010Z,50.55
2017-11-09T03:22:45.999Z,51.42
2017-11-09T03:23:48.691Z,56.15
2017-11-09T03:24:51.982Z,52.30
2017-11-09T03:25:55.608Z,49.10
2017-11-09T03:26:58.141Z,52.42
2017-11-09T03:28:00.762Z,49.80
2017-11-09T03:29:03.239Z,56.22
2017-11-09T03:30:07.791Z,48.97
2017-11-09T03:31:10.358Z,52.65
2017-11-09T03:32:13.610Z,51.33
2017-11-09T03:33:16.282Z,55.33
2017-11-09T03:34:19.548Z,54.63
2017-11-09T03:35:22.028Z,52.38
2017-11-09T03:36:25.550Z,52.28
2017-11-09T03:37:28.832Z,53.72
2017-11-09T03:38:32.348Z,52.70
2017-11-09T03:39:35.845Z,51.58
2017-11-09T03:40:38.347Z,52.33
2017-11-09T03:41:40.850Z,50.22
2017-11-09T03:42:44.274Z,50.60
2017-11-09T03:43:46.915Z,52.62
2017-11-09T03:44:50.308Z,52.53
2017-11-09T03:45:52.834Z,52.72
2017-11-09T03:46:55.344Z,56.28
2017-11-09T03:47:58.485Z,49.72
2017-11-09T03:49:01.004Z,51.95
2017-11-09T03:50:03.502Z,51.20
2017-11-09T03:51:06.018Z,50.90
2017-11-09T03:52:08.841Z,54.47
2017-11-09T03:53:11.396Z,56.00
2017-11-09T03:54:14.038Z,52.20
2017-11-09T03:55:16.723Z,50.95
2017-11-09T03:56:19.504Z,54.92
2017-11-09T03:57:22.106Z,51.50
2017-11-09T03:58:25.385Z,54.45
2017-11-09T03:59:28.009Z,53.95
2017-11-09T04:00:30.519Z,54.00
2017-11-09T04:01:33.089Z,52.08
2017-11-09T04:02:35.578Z,53.50
2017-11-09T04:03:38.713Z,50.38
2017-11-09T04:04:41.197Z,54.33
2017-11-09T04:05:45.692Z,51.55
2017-11-09T04:06:48.373Z,52.75
2017-11-09T04:07:51.388Z,57.08
2017-11-09T04:08:53.872Z,52.38
2017-11-09T04:09:56.725Z,51.53
2017-11-09T04:10:59.845Z,51.80
2017-11-09T04:12:02.899Z,48.72
2017-11-09T04:13:05.381Z,51.22
2017-11-09T04:14:07.952Z,51.53
2017-11-09T04:15:10.508Z,50.33
2017-11-09T04:16:13.180Z,54.80
2017-11-09T04:17:15.683Z,51.50
2017-11-09T04:18:19.535Z,52.33
2017-11-09T04:19:22.391Z,51.10
2017-11-09T04:20:25.074Z,50.35
2017-11-09T04:21:27.889Z,46.83
2017-11-09T04:22:30.999Z,51.10
2017-11-09T04:23:34.459Z,51.05
2017-11-09T04:24:37.422Z,49.85
2017-11-09T04:25:40.021Z,47.60
2017-11-09T04:26:43.580Z,52.00
2017-11-09T04:27:47.577Z,51.53
2017-11-09T04:28:50.161Z,49.75
2017-11-09T04:29:52.645Z,48.58
2017-11-09T04:30:56.096Z,48.03
2017-11-09T04:31:58.566Z,51.88
2017-11-09T04:33:02.026Z,51.30
2017-11-09T04:34:04.522Z,49.58
2017-11-09T04:35:07.065Z,45.92
2017-11-09T04:36:09.547Z,48.67
2017-11-09T04:37:12.100Z,49.92
2017-11-09T04:38:14.573Z,49.72
2017-11-09T04:39:17.154Z,49.20
2017-11-09T04:40:20.480Z,46.25
2017-11-09T04:41:23.082Z,46.92
2017-11-09T04:42:25.585Z,48.22
2017-11-09T04:43:32.117Z,49.75
2017-11-09T04:44:34.608Z,50.33
2017-11-09T04:45:42.048Z,49.03
2017-11-09T04:46:44.541Z,46.50
2017-11-09T04:47:48.339Z,48.67
2017-11-09T04:48:51.611Z,46.95
2017-11-09T04:49:56.444Z,50.95
2017-11-09T04:50:58.933Z,48.40
2017-11-09T04:52:03.298Z,48.70
2017-11-09T04:53:05.798Z,51.10
2017-11-09T04:54:09.237Z,46.75
2017-11-09T04:55:11.729Z,47.45
2017-11-09T04:56:15.221Z,48.70
2017-11-09T04:57:17.800Z,49.30
2017-11-09T04:58:20.586Z,47.88
2017-11-09T04:59:23.850Z,51.17
2017-11-09T05:00:26.503Z,50.28
2017-11-09T05:01:28.984Z,51.53
2017-11-09T05:02:32.437Z,47.47
2017-11-09T05:03:35.085Z,48.40
2017-11-09T05:04:38.697Z,50.33
2017-11-09T05:05:41.184Z,49.63
2017-11-09T05:06:43.738Z,46.03
2017-11-09T05:07:46.229Z,48.08
2017-11-09T05:08:50.306Z,47.75
2017-11-09T05:09:52.797Z,50.10
2017-11-09T05:10:55.341Z,49.08
2017-11-09T05:11:57.828Z,47.90
2017-11-09T05:13:01.307Z,47.03
2017-11-09T05:14:03.789Z,50.58
2017-11-09T05:15:07.251Z,49.90
2017-11-09T05:16:09.746Z,49.22
2017-11-09T05:17:12.326Z,50.00
2017-11-09T05:18:14.807Z,50.50
2017-11-09T05:19:17.610Z,49.35
2017-11-09T05:20:20.094Z,48.25
2017-11-09T05:21:23.585Z,47.95
2017-11-09T05:22:26.069Z,49.03
2017-11-09T05:23:29.522Z,46.97
2017-11-09T05:24:32.005Z,48.67
2017-11-09T05:25:34.484Z,49.75
2017-11-09T05:26:37.744Z,48.40
2017-11-09T05:27:40.496Z,47.25
2017-11-09T05:28:42.989Z,48.17
2017-11-09T05:29:45.551Z,48.80
2017-11-09T05:30:48.060Z,47.30
2017-11-09T05:31:50.862Z,48.30
2017-11-09T05:32:53.358Z,48.55
2017-11-09T05:33:56.833Z,48.92
2017-11-09T05:34:59.322Z,48.90
2017-11-09T05:36:02.807Z,48.20
2017-11-09T05:37:05.300Z,52.05
2017-11-09T05:38:08.127Z,49.95
2017-11-09T05:39:10.620Z,46.90
2017-11-09T05:40:14.055Z,48.58
2017-11-09T05:41:16.529Z,50.17
2017-11-09T05:42:19.104Z,47.65
2017-11-09T05:43:23.430Z,46.28
2017-11-09T05:44:26.914Z,50.58
2017-11-09T05:45:30.153Z,50.33
2017-11-09T05:46:32.886Z,48.90
2017-11-09T05:47:36.322Z,47.38
2017-11-09T05:48:39.125Z,49.17
2017-11-09T05:49:42.369Z,49.75
2017-11-09T05:50:45.074Z,48.55
2017-11-09T05:51:48.333Z,48.13
2017-11-09T05:52:51.041Z,50.75
2017-11-09T05:53:54.310Z,48.38
2017-11-09T05:54:58.508Z,47.97
2017-11-09T05:56:00.983Z,51.20
2017-11-09T05:57:03.639Z,49.50
2017-11-09T05:58:06.108Z,49.20
2017-11-09T05:59:09.661Z,48.35
2017-11-09T06:00:12.173Z,48.60
2017-11-09T06:01:14.822Z,48.53
2017-11-09T06:02:17.296Z,51.55
2017-11-09T06:03:20.799Z,48.55
2017-11-09T06:04:24.058Z,49.45
2017-11-09T06:05:26.739Z,50.65
2017-11-09T06:06:29.227Z,51.53
2017-11-09T06:07:31.744Z,49.95
2017-11-09T06:08:34.265Z,52.50
2017-11-09T06:09:37.906Z,50.67
2017-11-09T06:10:40.386Z,48.70
2017-11-09T06:11:43.044Z,49.25
2017-11-09T06:12:45.533Z,48.05
2017-11-09T06:13:49.019Z,49.53
2017-11-09T06:14:51.498Z,48.22
2017-11-09T06:15:54.050Z,49.10
2017-11-09T06:16:56.550Z,48.47
2017-11-09T06:18:00.570Z,50.12
2017-11-09T06:19:03.139Z,48.80
2017-11-09T06:20:05.938Z,50.22
2017-11-09T06:21:08.460Z,50.42
2017-11-09T06:22:10.973Z,50.30
2017-11-09T06:23:13.454Z,49.70
2017-11-09T06:24:16.015Z,47.88
2017-11-09T06:25:18.489Z,47.90
2017-11-09T06:26:21.361Z,48.30
2017-11-09T06:27:23.855Z,48.80
2017-11-09T06:28:27.287Z,49.97
2017-11-09T06:29:29.758Z,48.65
2017-11-09T06:30:32.443Z,49.05
2017-11-09T06:31:34.931Z,51.10
2017-11-09T06:32:37.655Z,46.95
2017-11-09T06:33:40.128Z,46.08
2017-11-09T06:34:43.501Z,49.13
2017-11-09T06:35:46.011Z,49.50
2017-11-09T06:36:48.697Z,50.45
2017-11-09T06:37:51.934Z,48.03
2017-11-09T06:38:54.620Z,48.15
2017-11-09T06:39:57.881Z,46.30
2017-11-09T06:41:00.553Z,46.55
2017-11-09T06:42:03.048Z,48.55
2017-11-09T06:43:06.344Z,49.60
2017-11-09T06:44:08.859Z,48.10
2017-11-09T06:45:11.546Z,49.85
2017-11-09T06:46:14.010Z,46.75
2017-11-09T06:47:16.589Z,49.00
2017-11-09T06:48:19.118Z,50.63
2017-11-09T06:49:21.914Z,51.78
2017-11-09T06:50:24.414Z,50.75
2017-11-09T06:51:26.926Z,50.88
2017-11-09T06:52:30.122Z,50.20
2017-11-09T06:53:32.895Z,47.45
2017-11-09T06:54:35.488Z,46.13
2017-11-09T06:55:38.239Z,48.22
2017-11-09T06:56:40.728Z,47.22
2017-11-09T06:57:43.248Z,46.95
2017-11-09T06:58:45.726Z,49.97
2017-11-09T06:59:48.304Z,50.10
2017-11-09T07:00:50.789Z,48.65
2017-11-09T07:01:55.163Z,48.80
2017-11-09T07:02:57.646Z,48.20
2017-11-09T07:04:00.215Z,49.40
2017-11-09T07:05:03.434Z,47.25
2017-11-09T07:06:07.316Z,48.50
2017-11-09T07:07:09.801Z,48.30
2017-11-09T07:08:13.355Z,48.75
2017-11-09T07:09:17.517Z,49.28
2017-11-09T07:10:20.236Z,48.67
2017-11-09T07:11:23.126Z,47.45
2017-11-09T07:12:26.475Z,45.50
2017-11-09T07:13:28.961Z,48.70
2017-11-09T07:14:31.441Z,48.83
2017-11-09T07:15:34.716Z,50.30
2017-11-09T07:16:38.075Z,48.42
2017-11-09T07:17:40.569Z,49.20
2017-11-09T07:18:44.935Z,47.45
2017-11-09T07:19:47.413Z,47.22
2017-11-09T07:20:50.008Z,47.28
2017-11-09T07:21:53.279Z,46.63
2017-11-09T07:22:55.935Z,46.15
2017-11-09T07:23:58.433Z,47.47
2017-11-09T07:25:01.896Z,46.83
2017-11-09T07:26:04.398Z,47.92
2017-11-09T07:27:06.903Z,49.83
2017-11-09T07:28:09.387Z,47.92
2017-11-09T07:29:11.956Z,48.60
2017-11-09T07:30:14.441Z,46.10
2017-11-09T07:31:16.973Z,50.28
2017-11-09T07:32:19.670Z,44.88
2017-11-09T07:33:22.333Z,47.67
2017-11-09T07:34:24.845Z,50.60
2017-11-09T07:35:27.353Z,47.22
2017-11-09T07:36:29.840Z,46.25
2017-11-09T07:37:32.429Z,47.53
2017-11-09T07:38:35.678Z,45.63
2017-11-09T07:39:38.957Z,47.97
2017-11-09T07:40:41.441Z,46.95
2017-11-09T07:41:44.025Z,46.75
2017-11-09T07:42:47.326Z,45.53
2017-11-09T07:43:49.936Z,46.42
2017-11-09T07:44:52.451Z,43.38
2017-11-09T07:45:54.960Z,43.47
2017-11-09T07:46:57.466Z,46.63
2017-11-09T07:48:00.905Z,45.58
2017-11-09T07:49:03.398Z,46.75
2017-11-09T07:50:05.936Z,45.22
2017-11-09T07:51:08.409Z,45.72
2017-11-09T07:52:10.982Z,47.30
2017-11-09T07:53:13.457Z,47.15
2017-11-09T07:54:16.935Z,48.15
2017-11-09T07:55:19.416Z,43.13
2017-11-09T07:56:25.026Z,44.97
2017-11-09T07:57:28.235Z,46.75
2017-11-09T07:58:30.992Z,47.30
2017-11-09T07:59:33.460Z,47.25
2017-11-09T08:00:36.029Z,46.97
2017-11-09T08:01:39.444Z,45.92
2017-11-09T08:02:42.975Z,48.20
2017-11-09T08:03:45.504Z,45.08
2017-11-09T08:04:48.858Z,46.85
2017-11-09T08:05:51.329Z,45.05
2017-11-09T08:06:53.875Z,45.72
2017-11-09T08:07:56.553Z,42.80
2017-11-09T08:08:59.277Z,45.22
2017-11-09T08:10:01.791Z,45.72
2017-11-09T08:11:04.557Z,45.25
2017-11-09T08:12:07.060Z,47.20
2017-11-09T08:13:10.533Z,43.03
2017-11-09T08:14:13.005Z,45.55
2017-11-09T08:15:16.464Z,44.53
2017-11-09T08:16:18.955Z,45.35
2017-11-09T08:17:22.433Z,43.95
2017-11-09T08:18:25.695Z,45.90
2017-11-09T08:19:28.354Z,42.70
2017-11-09T08:20:30.839Z,43.40
2017-11-09T08:21:34.395Z,42.90
2017-11-09T08:22:36.865Z,40.55
2017-11-09T08:23:39.672Z,43.20
2017-11-09T08:24:47.649Z,42.70
2017-11-09T08:25:53.081Z,44.20
2017-11-09T08:27:02.897Z,44.03
2017-11-09T08:28:07.842Z,42.92
2017-11-09T08:29:11.535Z,41.65
2017-11-09T08:30:17.229Z,41.05
2017-11-09T08:31:22.845Z,41.92
2017-11-09T08:32:27.807Z,42.38
2017-11-09T08:33:32.518Z,41.95
2017-11-09T08:34:35.863Z,40.25
2017-11-09T08:35:39.471Z,41.88
2017-11-09T08:36:42.728Z,40.72
2017-11-09T08:37:45.373Z,41.05
2017-11-09T08:38:47.865Z,38.90
2017-11-09T08:39:52.739Z,41.72
2017-11-09T08:40:55.225Z,39.83
2017-11-09T08:41:57.912Z,42.38
2017-11-09T08:43:01.124Z,42.15
2017-11-09T08:44:04.475Z,40.47
2017-11-09T08:45:06.961Z,42.13
2017-11-09T08:46:09.508Z,41.35
2017-11-09T08:47:11.991Z,42.40
2017-11-09T08:48:14.549Z,40.40
2017-11-09T08:49:17.046Z,39.03
2017-11-09T08:50:20.567Z,40.50
2017-11-09T08:51:23.070Z,42.80
2017-11-09T08:52:26.461Z,40.47
2017-11-09T08:53:30.484Z,40.92
2017-11-09T08:54:33.988Z,39.90
2017-11-09T08:55:37.421Z,42.17
2017-11-09T08:56:40.206Z,39.80
2017-11-09T08:57:42.781Z,41.97
2017-11-09T08:58:46.365Z,39.38
2017-11-09T08:59:50.365Z,41.15
2017-11-09T09:00:53.024Z,42.08
2017-11-09T09:01:55.527Z,42.65
2017-11-09T09:02:59.232Z,41.63
2017-11-09T09:04:02.526Z,41.55
2017-11-09T09:05:05.539Z,41.85
2017-11-09T09:06:08.036Z,42.90
2017-11-09T09:07:10.569Z,39.60
2017-11-09T09:08:13.178Z,39.20
2017-11-09T09:09:16.555Z,40.38
2017-11-09T09:10:21.973Z,39.25
2017-11-09T09:11:24.641Z,39.92
2017-11-09T09:12:27.175Z,41.05
2017-11-09T09:13:29.702Z,39.25
2017-11-09T09:14:32.998Z,38.60
2017-11-09T09:15:36.553Z,39.22
2017-11-09T09:16:39.763Z,38.85
2017-11-09T09:17:43.579Z,36.03
2017-11-09T09:18:46.081Z,40.55
2017-11-09T09:19:48.755Z,38.53
2017-11-09T09:20:55.028Z,39.72
2017-11-09T09:22:00.840Z,36.33
2017-11-09T09:23:03.336Z,36.45
2017-11-09T09:24:20.768Z,38.45
2017-11-09T09:25:25.942Z,38.22
2017-11-09T09:26:32.081Z,38.83
2017-11-09T09:27:35.304Z,36.63
2017-11-09T09:30:15.338Z,35.63
2017-11-09T09:31:19.686Z,35.60
2017-11-09T09:32:29.166Z,36.65
2017-11-09T09:33:33.470Z,36.00
2017-11-09T09:34:41.402Z,38.85
2017-11-09T09:35:47.393Z,36.15
2017-11-09T09:37:08.957Z,36.83
2017-11-09T09:38:18.462Z,35.97
2017-11-09T09:39:27.893Z,35.72
2017-11-09T09:40:33.690Z,34.05
2017-11-09T09:41:36.338Z,33.28
2017-11-09T09:42:38.942Z,34.58
2017-11-09T09:43:42.581Z,36.33
2017-11-09T09:44:46.286Z,34.88
2017-11-09T09:45:49.165Z,36.83
2017-11-09T09:46:51.850Z,34.38
2017-11-09T09:47:54.403Z,32.15
2017-11-09T09:48:58.117Z,34.55
2017-11-09T09:50:01.165Z,32.53
2017-11-09T09:51:04.119Z,31.48
2017-11-09T09:52:07.281Z,33.58
2017-11-09T09:53:11.287Z,32.45
2017-11-09T09:54:14.510Z,33.17
2017-11-09T09:55:17.405Z,33.80
2017-11-09T09:56:21.004Z,33.60
2017-11-09T09:57:23.496Z,33.15
2017-11-09T09:58:27.563Z,34.60
2017-11-09T09:59:30.115Z,34.22
2017-11-09T10:00:32.900Z,34.00
2017-11-09T10:01:35.573Z,34.40
2017-11-09T10:02:38.731Z,35.20
2017-11-09T10:03:42.202Z,33.85
2017-11-09T10:04:44.806Z,34.22
2017-11-09T10:05:47.651Z,34.80
2017-11-09T10:06:50.452Z,35.08
2017-11-09T10:07:56.747Z,36.05
2017-11-09T10:09:00.220Z,37.40
2017-11-09T10:10:03.598Z,33.80
2017-11-09T10:11:06.948Z,35.88
2017-11-09T10:12:09.438Z,33.55
2017-11-09T10:13:14.959Z,37.28
2017-11-09T10:14:20.582Z,34.63
2017-11-09T10:15:23.186Z,35.63
2017-11-09T10:16:27.039Z,35.70
2017-11-09T10:17:29.722Z,34.35
2017-11-09T10:18:33.309Z,36.88
2017-11-09T10:19:35.985Z,34.08
2017-11-09T10:20:38.535Z,34.38
2017-11-09T10:21:41.318Z,36.15
2017-11-09T10:22:43.818Z,35.17
2017-11-09T10:23:47.298Z,37.00
2017-11-09T10:24:49.795Z,37.17
2017-11-09T10:25:52.651Z,36.97
2017-11-09T10:26:55.894Z,36.50
2017-11-09T10:27:59.497Z,34.90
2017-11-09T10:29:01.989Z,36.35
2017-11-09T10:30:05.459Z,35.97
2017-11-09T10:31:07.975Z,35.33
2017-11-09T10:32:10.794Z,36.97
2017-11-09T10:33:13.271Z,35.85
2017-11-09T10:34:15.801Z,38.75
2017-11-09T10:35:18.293Z,39.28
2017-11-09T10:36:20.851Z,38.40
2017-11-09T10:37:23.332Z,35.53
2017-11-09T10:38:27.249Z,38.72
2017-11-09T10:39:31.475Z,37.80
2017-11-09T10:40:34.306Z,37.97
2017-11-09T10:41:36.805Z,34.65
2017-11-09T10:42:40.289Z,37.83
2017-11-09T10:43:43.565Z,37.55
2017-11-09T10:44:46.199Z,37.47
2017-11-09T10:45:49.207Z,39.72
2017-11-09T10:46:52.807Z,37.25
2017-11-09T10:47:56.063Z,38.13
2017-11-09T10:48:59.642Z,34.28
2017-11-09T10:50:02.133Z,35.20
2017-11-09T10:51:04.631Z,34.60
2017-11-09T10:52:07.098Z,36.83
2017-11-09T10:53:10.556Z,36.90
2017-11-09T10:54:13.800Z,38.13
2017-11-09T10:55:16.501Z,37.85
2017-11-09T10:56:19.061Z,32.33
2017-11-09T10:57:22.506Z,35.00
2017-11-09T10:58:24.986Z,36.15
2017-11-09T10:59:27.474Z,34.75
2017-11-09T11:00:35.653Z,33.58
2017-11-09T11:01:39.034Z,33.80
2017-11-09T11:02:41.547Z,33.97
2017-11-09T11:03:45.017Z,37.63
2017-11-09T11:04:48.277Z,37.08
2017-11-09T11:05:52.605Z,36.08
2017-11-09T11:06:55.342Z,39.03
2017-11-09T11:07:58.774Z,34.33
2017-11-09T11:09:02.398Z,37.20
2017-11-09T11:10:06.738Z,36.92
2017-11-09T11:11:09.873Z,39.45
2017-11-09T11:12:14.529Z,39.13
2017-11-09T11:13:17.057Z,37.10
2017-11-09T11:14:19.656Z,37.22
2017-11-09T11:15:22.145Z,36.45
2017-11-09T11:16:24.651Z,37.78
2017-11-09T11:17:27.373Z,39.15
2017-11-09T11:18:31.099Z,39.17
2017-11-09T11:19:34.486Z,36.38
2017-11-09T11:20:38.152Z,39.90
2017-11-09T11:21:40.660Z,37.15
2017-11-09T11:22:43.471Z,38.95
2017-11-09T11:23:45.958Z,38.15
2017-11-09T11:24:48.729Z,37.42
2017-11-09T11:25:51.720Z,38.38
2017-11-09T11:26:54.891Z,41.70
2017-11-09T11:27:58.198Z,40.35
2017-11-09T11:29:01.681Z,39.53
2017-11-09T11:30:04.796Z,38.35
2017-11-09T11:31:08.111Z,38.58
2017-11-09T11:32:10.586Z,37.58
2017-11-09T11:33:13.235Z,39.35
2017-11-09T11:34:15.776Z,42.13
2017-11-09T11:35:18.584Z,39.45
2017-11-09T11:36:22.357Z,36.58
2017-11-09T11:37:26.921Z,39.33
2017-11-09T11:38:31.371Z,41.15
2017-11-09T11:39:33.890Z,38.70
2017-11-09T11:40:36.376Z,40.12
2017-11-09T11:41:39.833Z,35.33
2017-11-09T11:42:42.321Z,37.45
2017-11-09T11:43:45.786Z,36.90
2017-11-09T11:44:48.278Z,35.55
2017-11-09T11:45:50.790Z,36.85
2017-11-09T11:46:53.279Z,35.38
2017-11-09T11:48:00.061Z,36.60
2017-11-09T11:49:02.553Z,37.05
2017-11-09T11:50:06.096Z,37.00
2017-11-09T11:51:08.608Z,35.97
2017-11-09T11:52:12.049Z,35.22
2017-11-09T11:53:14.540Z,35.40
2017-11-09T11:54:17.025Z,35.20
2017-11-09T11:55:20.262Z,36.63
2017-11-09T11:56:23.061Z,34.15
2017-11-09T11:57:26.170Z,35.60
2017-11-09T11:58:30.817Z,38.17
2017-11-09T11:59:33.317Z,36.65
2017-11-09T12:00:35.791Z,36.53
2017-11-09T12:01:38.290Z,37.03
2017-11-09T12:02:41.060Z,35.28
2017-11-09T12:03:47.373Z,36.38
2017-11-09T12:04:51.808Z,33.75
2017-11-09T12:05:55.086Z,36.65
2017-11-09T12:06:58.631Z,38.78
2017-11-09T12:08:01.111Z,36.72
2017-11-09T12:09:03.598Z,39.50
2017-11-09T12:10:06.872Z,38.15
2017-11-09T12:11:09.646Z,36.95
2017-11-09T12:12:14.125Z,39.10
2017-11-09T12:13:18.800Z,36.90
2017-11-09T12:14:22.065Z,35.35
2017-11-09T12:15:25.526Z,36.60
2017-11-09T12:16:28.024Z,35.65
2017-11-09T12:17:31.420Z,37.00
2017-11-09T12:18:35.719Z,39.63
2017-11-09T12:19:38.280Z,38.65
2017-11-09T12:20:40.755Z,37.90
2017-11-09T12:21:44.336Z,38.50
2017-11-09T12:22:46.864Z,39.42
2017-11-09T12:23:49.762Z,39.38
2017-11-09T12:24:52.254Z,41.53
2017-11-09T12:25:55.640Z,39.58
2017-11-09T12:26:58.912Z,39.47
2017-11-09T12:28:01.478Z,39.13
2017-11-09T12:29:05.226Z,38.10
2017-11-09T12:30:07.789Z,37.25
2017-11-09T12:31:10.810Z,41.63
2017-11-09T12:32:13.479Z,40.42
2017-11-09T12:33:15.993Z,40.67
2017-11-09T12:34:18.497Z,39.45
2017-11-09T12:35:21.015Z,40.20
2017-11-09T12:36:23.486Z,41.35
2017-11-09T12:37:25.981Z,41.10
2017-11-09T12:38:29.094Z,42.35
2017-11-09T12:39:32.806Z,41.33
2017-11-09T12:40:36.957Z,40.70
2017-11-09T12:41:40.290Z,39.58
2017-11-09T12:42:43.856Z,41.50
2017-11-09T12:43:46.391Z,42.00
2017-11-09T12:44:49.535Z,39.72
2017-11-09T12:45:52.082Z,42.58
2017-11-09T12:46:55.434Z,39.67
2017-11-09T12:47:57.917Z,43.03
2017-11-09T12:49:02.013Z,38.83
2017-11-09T12:50:04.505Z,40.90
2017-11-09T12:51:08.945Z,39.10
2017-11-09T12:52:11.498Z,39.28
2017-11-09T12:53:14.524Z,41.53
2017-11-09T12:54:17.032Z,41.30
2017-11-09T12:55:20.487Z,41.35
2017-11-09T12:56:22.972Z,39.20
2017-11-09T12:57:26.426Z,40.78
2017-11-09T12:58:28.921Z,38.08
2017-11-09T12:59:31.451Z,38.92
2017-11-09T13:00:33.944Z,40.63
2017-11-09T13:01:40.187Z,37.20
2017-11-09T13:02:42.693Z,40.30
2017-11-09T13:03:45.202Z,37.50
2017-11-09T13:04:47.715Z,38.75
2017-11-09T13:05:51.402Z,40.12
2017-11-09T13:06:54.661Z,39.22
2017-11-09T13:07:58.328Z,40.05
2017-11-09T13:09:01.311Z,40.72
2017-11-09T13:10:03.989Z,40.75
2017-11-09T13:11:06.469Z,39.05
2017-11-09T13:12:10.281Z,37.85
2017-11-09T13:13:12.781Z,39.13
2017-11-09T13:14:16.249Z,38.47
2017-11-09T13:15:18.768Z,39.50
2017-11-09T13:16:21.589Z,41.60
2017-11-09T13:17:24.096Z,39.55
2017-11-09T13:18:28.266Z,39.42
2017-11-09T13:19:32.593Z,39.08
2017-11-09T13:20:35.864Z,36.63
2017-11-09T13:21:39.138Z,40.63
2017-11-09T13:22:43.842Z,40.03
2017-11-09T13:23:46.362Z,36.97
2017-11-09T13:24:49.106Z,37.40
2017-11-09T13:25:53.089Z,36.88
2017-11-09T13:26:55.562Z,37.22
2017-11-09T13:27:58.819Z,37.30
2017-11-09T13:29:01.589Z,36.88
2017-11-09T13:30:04.115Z,39.42
2017-11-09T13:31:06.906Z,38.45
2017-11-09T13:32:09.420Z,39.10
2017-11-09T13:33:11.937Z,38.05
2017-11-09T13:35:53.573Z,38.13
2017-11-09T13:36:57.358Z,38.28
2017-11-09T13:37:59.848Z,38.35